Time;durP1;ratioP1;P1;durP2;ratioP2;P2;SDS_P1;SDS_P2;PMS_P1;PMS_P2;Temp;Humidity;BMP_temperature;BMP_pressure;BME280_temperature;BME280_humidity;BME280_pressure;Samples;Min_cycle;Max_cycle;Signal;HPM_P1;HPM_P2
2022/07/21 00:00:32;;;;;;;23.60;15.10;;;19.60;78.80;;;;;;5034776;28;20274;-87
2022/07/21 00:02:58;;;;;;;21.80;14.02;;;19.60;79.70;;;;;;5037970;28;20212;-87
2022/07/21 00:05:25;;;;;;;25.33;15.63;;;19.50;80.20;;;;;;5056069;28;20217;-87
2022/07/21 00:07:51;;;;;;;24.33;15.10;;;19.50;80.20;;;;;;5038195;28;20192;-87
2022/07/21 00:10:18;;;;;;;21.30;15.27;;;19.50;80.10;;;;;;5055940;28;20665;-87
2022/07/21 00:12:44;;;;;;;26.58;15.43;;;19.50;79.80;;;;;;5038096;28;20653;-87
2022/07/21 00:15:11;;;;;;;26.23;15.85;;;19.50;80.20;;;;;;5037966;28;20286;-87
2022/07/21 00:17:37;;;;;;;25.88;15.07;;;19.50;80.70;;;;;;5055974;28;20275;-87
2022/07/21 00:20:04;;;;;;;22.35;14.75;;;19.50;80.30;;;;;;5056048;28;20258;-87
2022/07/21 00:22:30;;;;;;;26.48;14.88;;;19.60;80.20;;;;;;5037848;28;20176;-87
2022/07/21 00:24:55;;;;;;;23.77;13.77;;;19.50;79.90;;;;;;5042298;28;20178;-87
2022/07/21 00:27:21;;;;;;;25.45;14.88;;;19.50;80.50;;;;;;5055743;28;20223;-87
2022/07/21 00:29:47;;;;;;;25.08;14.70;;;19.50;80.20;;;;;;5038008;28;20172;-87
2022/07/21 00:32:12;;;;;;;26.73;15.00;;;19.50;80.10;;;;;;5037804;28;20188;-87
2022/07/21 00:34:38;;;;;;;20.77;13.98;;;19.60;80.20;;;;;;5037600;28;20290;-87
2022/07/21 00:37:03;;;;;;;23.83;14.57;;;19.60;80.40;;;;;;5037529;28;20216;-87
2022/07/21 00:39:29;;;;;;;22.98;14.20;;;19.50;80.40;;;;;;5037955;28;20176;-87
2022/07/21 00:41:54;;;;;;;24.60;15.48;;;19.50;80.50;;;;;;5055614;28;20179;-87
2022/07/21 00:44:26;;;;;;;26.10;14.80;;;19.50;80.30;;;;;;5124162;22;20619;-86
2022/07/21 00:46:53;;;;;;;28.25;13.70;;;19.40;80.50;;;;;;5035296;28;20639;-86
2022/07/21 00:49:19;;;;;;;24.75;13.88;;;19.40;80.30;;;;;;5035353;28;20177;-86
2022/07/21 00:51:46;;;;;;;28.15;14.02;;;19.40;80.40;;;;;;5033937;28;20180;-86
2022/07/21 00:54:14;;;;;;;27.75;13.88;;;19.30;80.70;;;;;;5033772;28;20583;-86
2022/07/21 00:56:39;;;;;;;25.25;13.73;;;19.30;80.60;;;;;;5033981;28;20665;-86
2022/07/21 00:59:05;;;;;;;24.40;12.68;;;19.40;80.60;;;;;;5034968;28;20176;-86
2022/07/21 01:01:31;;;;;;;24.85;13.50;;;19.40;80.30;;;;;;5035073;28;20176;-86
2022/07/21 01:03:56;;;;;;;25.92;13.80;;;19.30;79.80;;;;;;5033682;28;20200;-86
2022/07/21 01:06:25;;;;;;;28.73;13.15;;;19.20;80.20;;;;;;5033789;28;20187;-86
2022/07/21 01:08:51;;;;;;;24.75;14.05;;;19.20;80.60;;;;;;5034931;28;20181;-86
2022/07/21 01:11:18;;;;;;;22.02;15.20;;;19.00;80.70;;;;;;5033829;28;20651;-86
2022/07/21 01:13:44;;;;;;;22.20;15.25;;;18.80;82.00;;;;;;5032348;28;20573;-86
2022/07/21 01:16:09;;;;;;;27.63;15.40;;;18.60;83.10;;;;;;5034760;28;20180;-86
2022/07/21 01:18:36;;;;;;;18.33;13.90;;;18.70;83.20;;;;;;5034675;28;20234;-86
2022/07/21 01:21:08;;;;;;;28.15;15.70;;;18.80;82.90;;;;;;5033487;28;20176;-86
2022/07/21 01:23:34;;;;;;;22.60;13.77;;;18.70;82.20;;;;;;5033172;28;20192;-86
2022/07/21 01:25:59;;;;;;;27.08;15.15;;;18.70;82.20;;;;;;5033596;28;20231;-86
2022/07/21 01:28:25;;;;;;;24.27;15.30;;;18.80;81.90;;;;;;5034448;28;20662;-86
2022/07/21 01:30:50;;;;;;;24.40;15.32;;;18.70;82.50;;;;;;5034574;28;20620;-86
2022/07/21 01:33:16;;;;;;;31.08;16.30;;;18.50;83.30;;;;;;5033170;28;20619;-86
2022/07/21 01:35:42;;;;;;;26.77;15.50;;;18.20;84.70;;;;;;5033065;28;20545;-86
2022/07/21 01:41:28;;;;;;;28.77;16.42;;;18.00;85.40;;;;;;5033113;28;20195;-86
2022/07/21 01:43:44;;;;;;;30.90;15.70;;;18.00;87.80;;;;;;5034387;28;20262;-86
2022/07/21 01:46:13;;;;;;;40.20;22.98;;;18.20;88.70;;;;;;5034508;28;20627;-86
2022/07/21 01:48:43;;;;;;;49.40;26.38;;;18.20;89.00;;;;;;5033015;28;20183;-86
2022/07/21 01:51:09;;;;;;;40.92;26.25;;;18.20;88.70;;;;;;5033204;28;20239;-86
2022/07/21 01:53:34;;;;;;;43.88;25.63;;;18.20;88.60;;;;;;5034038;28;20674;-85
2022/07/21 01:56:00;;;;;;;37.55;25.63;;;18.10;88.70;;;;;;5034061;28;20194;-86
2022/07/21 01:58:25;;;;;;;36.13;23.88;;;18.10;88.60;;;;;;5032739;28;20173;-86
2022/07/21 02:00:51;;;;;;;41.97;21.42;;;18.10;88.40;;;;;;5032784;28;20545;-86
2022/07/21 02:03:16;;;;;;;27.42;19.60;;;18.10;88.10;;;;;;5032655;28;20202;-86
2022/07/21 02:05:42;;;;;;;35.85;19.63;;;18.10;87.90;;;;;;5032647;28;20201;-86
2022/07/21 02:08:08;;;;;;;27.85;18.67;;;18.10;88.20;;;;;;5032659;28;20184;-86
2022/07/21 02:10:35;;;;;;;30.67;18.25;;;18.00;88.50;;;;;;5032560;28;20788;-86
2022/07/21 02:13:02;;;;;;;30.10;17.27;;;18.00;88.40;;;;;;5032477;28;20189;-86
2022/07/21 02:15:28;;;;;;;36.95;19.08;;;18.20;88.40;;;;;;5032406;28;20189;-86
2022/07/21 02:17:54;;;;;;;34.10;17.50;;;18.20;88.40;;;;;;5033655;28;20251;-86
2022/07/21 02:20:19;;;;;;;33.83;16.90;;;18.20;88.50;;;;;;5033507;28;20200;-86
2022/07/21 02:22:45;;;;;;;29.77;15.70;;;18.20;88.60;;;;;;5033211;28;20185;-86
2022/07/21 02:25:11;;;;;;;24.92;15.70;;;18.20;88.70;;;;;;5033242;28;20189;-86
2022/07/21 02:27:36;;;;;;;30.10;16.58;;;18.20;88.90;;;;;;5033587;28;20271;-86
2022/07/21 02:30:03;;;;;;;35.28;16.42;;;18.20;88.80;;;;;;5033410;28;20168;-86
2022/07/21 02:32:28;;;;;;;37.70;16.73;;;18.20;88.90;;;;;;5032225;28;20180;-86
2022/07/21 02:34:54;;;;;;;25.52;14.40;;;18.20;89.00;;;;;;5033279;28;20207;-86
2022/07/21 02:37:19;;;;;;;26.38;15.38;;;18.20;88.70;;;;;;5032372;28;20678;-86
2022/07/21 02:39:45;;;;;;;30.23;15.07;;;18.20;88.90;;;;;;5033684;28;20165;-86
2022/07/21 02:42:10;;;;;;;27.77;14.93;;;18.20;88.80;;;;;;5033673;28;20167;-86
2022/07/21 02:44:36;;;;;;;29.65;16.20;;;18.20;88.90;;;;;;5032093;28;20693;-86
2022/07/21 02:47:02;;;;;;;23.67;13.48;;;18.20;88.80;;;;;;5033457;28;20180;-86
2022/07/21 02:49:28;;;;;;;25.48;13.77;;;18.30;88.70;;;;;;5032100;28;20176;-86
2022/07/21 02:51:53;;;;;;;33.75;15.85;;;18.30;88.40;;;;;;5032097;28;20214;-86
2022/07/21 02:54:19;;;;;;;22.40;13.82;;;18.20;88.70;;;;;;5033327;28;20235;-86
2022/07/21 02:56:44;;;;;;;26.90;14.77;;;18.10;88.90;;;;;;5032100;28;20176;-86
2022/07/21 02:59:10;;;;;;;27.52;14.20;;;18.10;89.10;;;;;;5033519;28;20164;-86
2022/07/21 03:01:36;;;;;;;24.20;13.63;;;18.10;89.10;;;;;;5033811;28;20673;-86
2022/07/21 03:04:01;;;;;;;28.85;13.35;;;18.00;89.20;;;;;;5032244;28;20223;-86
2022/07/21 03:06:27;;;;;;;29.02;14.95;;;17.90;89.60;;;;;;5032061;28;20184;-86
2022/07/21 03:08:52;;;;;;;26.65;13.85;;;17.90;89.70;;;;;;5033130;28;20643;-86
2022/07/21 03:11:18;;;;;;;21.17;13.27;;;17.90;89.60;;;;;;5033308;28;20195;-86
2022/07/21 03:13:43;;;;;;;33.88;13.80;;;18.00;89.60;;;;;;5031794;28;20215;-86
2022/07/21 03:16:09;;;;;;;26.23;12.88;;;18.00;89.40;;;;;;5032097;28;20191;-86
2022/07/21 03:18:35;;;;;;;21.60;11.25;;;18.10;89.40;;;;;;5033324;28;20176;-86
2022/07/21 03:21:00;;;;;;;29.52;12.07;;;18.20;89.20;;;;;;5031933;28;20172;-86
2022/07/21 03:23:26;;;;;;;26.48;12.95;;;18.00;89.10;;;;;;5033235;28;20184;-86
2022/07/21 03:25:52;;;;;;;29.13;12.93;;;18.00;89.30;;;;;;5031849;28;20181;-86
2022/07/21 03:28:17;;;;;;;25.08;11.55;;;18.00;89.50;;;;;;5033092;28;20177;-86
2022/07/21 03:30:43;;;;;;;29.92;12.10;;;18.10;89.70;;;;;;5031942;28;20169;-86
2022/07/21 03:33:08;;;;;;;29.65;12.75;;;18.00;89.70;;;;;;5031929;28;20176;-86
2022/07/21 03:35:35;;;;;;;25.38;11.88;;;18.10;89.70;;;;;;5031674;28;20228;-86
2022/07/21 03:38:02;;;;;;;21.80;11.38;;;18.20;89.80;;;;;;5036822;28;20165;-86
2022/07/21 03:40:30;;;;;;;22.85;11.52;;;18.10;89.90;;;;;;5035507;28;20169;-86
2022/07/21 03:42:58;;;;;;;22.42;11.30;;;18.10;90.10;;;;;;5035671;28;20180;-86
2022/07/21 03:45:24;;;;;;;22.25;10.93;;;18.20;90.20;;;;;;5036419;28;20212;-86
2022/07/21 03:47:50;;;;;;;23.05;11.75;;;18.20;90.30;;;;;;5036862;28;20227;-86
2022/07/21 03:50:17;;;;;;;21.63;11.27;;;18.30;90.40;;;;;;5035822;28;20219;-86
2022/07/21 03:52:43;;;;;;;22.27;10.70;;;18.40;90.30;;;;;;5036765;28;20169;-86
2022/07/21 03:55:09;;;;;;;20.42;10.55;;;18.50;90.10;;;;;;5035130;28;20212;-86
2022/07/21 03:57:40;;;;;;;26.55;11.77;;;18.60;89.90;;;;;;5035251;28;20173;-86
2022/07/21 04:00:09;;;;;;;27.70;11.80;;;18.60;89.70;;;;;;5035259;28;20223;-87
2022/07/21 04:02:34;;;;;;;24.17;11.00;;;18.70;89.30;;;;;;5035181;28;20172;-87
2022/07/21 04:05:00;;;;;;;29.40;11.85;;;18.80;89.20;;;;;;5035236;28;20196;-86
2022/07/21 04:07:26;;;;;;;26.17;11.90;;;18.90;89.10;;;;;;5035061;28;20271;-86
2022/07/21 04:09:51;;;;;;;21.88;10.27;;;19.00;88.40;;;;;;5034958;28;20254;-86
2022/07/21 04:12:17;;;;;;;22.13;10.65;;;19.00;88.30;;;;;;5036117;28;20176;-86
2022/07/21 04:14:43;;;;;;;21.88;9.95;;;18.90;88.30;;;;;;5036231;28;20208;-86
2022/07/21 04:17:08;;;;;;;17.95;9.13;;;19.00;88.30;;;;;;5036283;28;20232;-86
2022/07/21 04:19:34;;;;;;;26.70;10.23;;;19.10;88.00;;;;;;5036336;28;20255;-86
2022/07/21 04:21:59;;;;;;;18.92;8.60;;;19.00;87.90;;;;;;5034743;28;20588;-86
2022/07/21 04:24:25;;;;;;;19.95;9.65;;;19.00;87.90;;;;;;5036004;28;20570;-86
2022/07/21 04:26:50;;;;;;;20.08;9.57;;;19.10;87.70;;;;;;5036083;28;20556;-87
2022/07/21 04:29:16;;;;;;;15.10;8.43;;;19.10;87.50;;;;;;5035009;28;20552;-87
2022/07/21 04:31:41;;;;;;;25.63;10.55;;;19.10;87.30;;;;;;5034526;28;20259;-86
2022/07/21 04:34:07;;;;;;;24.33;9.57;;;19.20;87.40;;;;;;5034628;28;20209;-86
2022/07/21 04:36:32;;;;;;;18.42;9.32;;;19.20;87.70;;;;;;5034527;28;20179;-86
2022/07/21 04:38:58;;;;;;;26.67;10.35;;;19.10;88.00;;;;;;5035680;28;20255;-86
2022/07/21 04:41:23;;;;;;;27.05;10.48;;;19.10;88.00;;;;;;5034574;28;20280;-86
2022/07/21 04:43:49;;;;;;;22.25;10.15;;;19.10;88.00;;;;;;5034131;28;20208;-86
2022/07/21 04:46:15;;;;;;;34.72;10.88;;;19.10;88.20;;;;;;5035610;28;20652;-86
2022/07/21 04:48:41;;;;;;;19.45;8.98;;;19.10;88.50;;;;;;5034111;28;20215;-86
2022/07/21 04:51:06;;;;;;;25.55;9.18;;;19.10;88.60;;;;;;5034338;28;20547;-86
2022/07/21 04:53:32;;;;;;;20.80;8.80;;;19.10;88.60;;;;;;5035275;28;20240;-86
2022/07/21 04:55:57;;;;;;;19.08;9.43;;;19.10;88.60;;;;;;5035575;28;20173;-86
2022/07/21 04:58:23;;;;;;;27.23;9.77;;;19.20;88.60;;;;;;5034066;28;20635;-86
2022/07/21 05:00:48;;;;;;;18.88;9.07;;;19.20;88.40;;;;;;5035246;28;20651;-86
2022/07/21 05:03:14;;;;;;;21.42;9.00;;;19.10;88.60;;;;;;5034120;28;20526;-86
2022/07/21 05:05:40;;;;;;;24.20;10.00;;;19.20;88.70;;;;;;5035394;28;20188;-86
2022/07/21 05:08:05;;;;;;;23.77;10.60;;;19.20;88.90;;;;;;5035337;28;20181;-86
2022/07/21 05:10:31;;;;;;;24.33;10.95;;;19.10;89.20;;;;;;5034998;28;20649;-86
2022/07/21 05:12:57;;;;;;;19.08;10.02;;;19.10;89.30;;;;;;5033724;28;20567;-86
2022/07/21 05:15:22;;;;;;;26.35;10.57;;;19.10;89.40;;;;;;5034151;28;20204;-86
2022/07/21 05:17:48;;;;;;;24.27;10.43;;;19.20;89.20;;;;;;5033563;28;20173;-86
2022/07/21 05:20:14;;;;;;;24.33;11.25;;;19.20;89.20;;;;;;5033491;28;20173;-86
2022/07/21 05:22:39;;;;;;;23.42;11.35;;;19.20;89.30;;;;;;5033505;28;20176;-87
2022/07/21 05:25:06;;;;;;;23.65;11.45;;;19.20;89.50;;;;;;5033329;28;20215;-86
2022/07/21 05:27:32;;;;;;;25.20;11.60;;;19.10;89.70;;;;;;5033594;28;20176;-86
2022/07/21 05:29:58;;;;;;;26.00;11.43;;;19.20;89.80;;;;;;5033282;28;20177;-86
2022/07/21 05:32:23;;;;;;;31.25;12.07;;;19.20;90.00;;;;;;5033557;28;20186;-86
2022/07/21 05:34:49;;;;;;;27.90;13.18;;;19.20;90.10;;;;;;5033182;28;20307;-86
2022/07/21 05:37:14;;;;;;;33.45;12.57;;;19.20;90.10;;;;;;5033142;28;20701;-86
2022/07/21 05:39:40;;;;;;;24.98;11.68;;;19.20;90.10;;;;;;5033081;28;20199;-85
2022/07/21 05:42:06;;;;;;;29.20;12.20;;;19.10;90.10;;;;;;5033081;28;20176;-85
2022/07/21 05:44:31;;;;;;;24.55;11.95;;;19.10;90.20;;;;;;5034217;28;20220;-86
2022/07/21 05:46:57;;;;;;;29.80;12.70;;;19.20;90.50;;;;;;5034445;28;20177;-86
2022/07/21 05:49:23;;;;;;;28.35;12.20;;;19.20;90.60;;;;;;5034106;28;20168;-86
2022/07/21 05:51:48;;;;;;;29.30;12.35;;;19.20;90.70;;;;;;5032816;28;20184;-86
2022/07/21 05:54:14;;;;;;;28.70;12.30;;;19.20;90.70;;;;;;5033950;28;20238;-85
2022/07/21 05:56:39;;;;;;;25.92;11.05;;;19.20;90.70;;;;;;5032807;28;20168;-86
2022/07/21 05:59:05;;;;;;;31.65;12.93;;;19.20;90.60;;;;;;5032737;28;20551;-85
2022/07/21 06:01:30;;;;;;;21.25;12.05;;;19.20;91.00;;;;;;5033900;28;20563;-85
2022/07/21 06:03:56;;;;;;;21.40;11.65;;;19.20;91.30;;;;;;5032518;28;20300;-85
2022/07/21 06:06:23;;;;;;;30.80;13.80;;;19.20;91.30;;;;;;5033715;28;20284;-85
2022/07/21 06:08:49;;;;;;;28.38;13.93;;;19.20;91.50;;;;;;5032965;28;20177;-86
2022/07/21 06:11:19;;;;;;;25.13;12.10;;;19.20;91.60;;;;;;5034443;28;20271;-86
2022/07/21 06:13:45;;;;;;;24.58;13.10;;;19.20;91.50;;;;;;5034542;28;20674;-86
2022/07/21 06:16:11;;;;;;;24.77;12.75;;;19.30;91.50;;;;;;5035588;28;20179;-86
2022/07/21 06:18:37;;;;;;;32.25;15.05;;;19.40;91.50;;;;;;5034865;28;20200;-87
2022/07/21 06:21:04;;;;;;;27.73;15.20;;;19.50;91.50;;;;;;5035879;28;20169;-86
2022/07/21 06:23:30;;;;;;;33.85;15.85;;;19.50;91.30;;;;;;5035011;28;20176;-86
2022/07/21 06:25:56;;;;;;;22.55;14.57;;;19.50;91.20;;;;;;5036236;28;20173;-86
2022/07/21 06:28:22;;;;;;;30.15;14.20;;;19.60;91.20;;;;;;5033942;28;20700;-85
2022/07/21 06:30:48;;;;;;;31.00;14.57;;;19.70;91.30;;;;;;5033192;28;20188;-86
2022/07/21 06:33:14;;;;;;;28.50;12.95;;;19.70;91.30;;;;;;5033402;28;20176;-85
2022/07/21 06:35:40;;;;;;;21.70;13.25;;;19.70;91.20;;;;;;5034842;28;20689;-85
2022/07/21 06:38:06;;;;;;;26.88;13.02;;;19.70;91.10;;;;;;5032949;28;20187;-86
2022/07/21 06:40:31;;;;;;;26.08;12.80;;;19.70;91.10;;;;;;5034098;28;20184;-86
2022/07/21 06:42:57;;;;;;;34.72;13.73;;;19.70;91.00;;;;;;5032506;28;20172;-85
2022/07/21 06:45:23;;;;;;;22.52;12.70;;;19.70;91.20;;;;;;5033334;28;20291;-85
2022/07/21 06:47:49;;;;;;;28.35;12.82;;;19.70;91.30;;;;;;5033768;28;20230;-86
2022/07/21 06:50:15;;;;;;;22.88;13.18;;;19.80;91.50;;;;;;5032339;28;20184;-86
2022/07/21 06:52:41;;;;;;;22.20;12.07;;;19.80;91.40;;;;;;5033309;28;20180;-86
2022/07/21 06:55:08;;;;;;;25.25;11.75;;;19.80;91.30;;;;;;5033437;28;20212;-86
2022/07/21 06:57:36;;;;;;;19.30;12.10;;;19.90;91.20;;;;;;5031964;28;20172;-86
2022/07/21 07:00:07;;;;;;;33.67;12.20;;;19.90;91.10;;;;;;5032010;28;20279;-86
2022/07/21 07:02:32;;;;;;;24.15;13.70;;;19.90;91.00;;;;;;5031851;28;20195;-86
2022/07/21 07:04:58;;;;;;;27.58;13.95;;;19.90;91.00;;;;;;5032124;28;20204;-86
2022/07/21 07:07:23;;;;;;;29.17;13.25;;;19.90;91.10;;;;;;5031788;28;20179;-86
2022/07/21 07:09:49;;;;;;;26.40;13.93;;;19.90;91.30;;;;;;5031825;28;20177;-87
2022/07/21 07:12:14;;;;;;;29.60;14.93;;;19.90;91.30;;;;;;5034422;28;20172;-87
2022/07/21 07:14:40;;;;;;;25.02;14.57;;;20.00;91.30;;;;;;5035769;28;20215;-86
2022/07/21 07:17:05;;;;;;;29.02;14.23;;;20.00;91.20;;;;;;5037025;28;20172;-86
2022/07/21 07:19:31;;;;;;;24.10;15.75;;;20.00;91.20;;;;;;5035917;28;20554;-86
2022/07/21 07:21:57;;;;;;;22.10;15.93;;;20.00;91.10;;;;;;5035927;28;20195;-86
2022/07/21 07:24:23;;;;;;;24.15;16.13;;;19.90;91.00;;;;;;5036894;28;20215;-86
2022/07/21 07:26:48;;;;;;;28.70;16.27;;;19.80;91.10;;;;;;5035625;28;20183;-86
2022/07/21 07:29:14;;;;;;;28.33;18.92;;;19.70;91.70;;;;;;5035884;28;20250;-86
2022/07/21 07:31:40;;;;;;;29.83;18.58;;;19.70;92.10;;;;;;5035575;28;20263;-86
2022/07/21 07:34:06;;;;;;;35.22;20.00;;;19.70;92.30;;;;;;5035508;28;20295;-86
2022/07/21 07:36:32;;;;;;;29.15;21.02;;;19.70;92.60;;;;;;5037084;28;20531;-86
2022/07/21 07:38:58;;;;;;;31.60;21.90;;;19.60;92.70;;;;;;5035487;28;20169;-86
2022/07/21 07:41:25;;;;;;;34.97;21.67;;;19.50;92.70;;;;;;5035471;28;20183;-86
2022/07/21 07:43:51;;;;;;;35.75;24.35;;;19.60;92.80;;;;;;5035171;28;20554;-86
2022/07/21 07:46:20;;;;;;;35.92;24.08;;;19.60;92.80;;;;;;5036849;28;20204;-85
2022/07/21 07:48:47;;;;;;;27.33;22.75;;;19.60;93.00;;;;;;5035305;28;20657;-86
2022/07/21 07:51:13;;;;;;;37.58;23.42;;;19.70;93.10;;;;;;5035244;28;20181;-86
2022/07/21 07:53:40;;;;;;;33.13;24.17;;;19.80;93.00;;;;;;5035198;28;20200;-87
2022/07/21 07:56:06;;;;;;;37.10;24.35;;;19.90;93.10;;;;;;5035413;28;20173;-86
2022/07/21 07:58:32;;;;;;;31.13;21.92;;;20.00;93.10;;;;;;5036536;28;20592;-85
2022/07/21 08:00:58;;;;;;;37.33;24.60;;;20.00;93.00;;;;;;5035591;28;20176;-86
2022/07/21 08:03:24;;;;;;;32.83;22.30;;;20.00;92.80;;;;;;5035679;28;20177;-86
2022/07/21 08:05:50;;;;;;;31.73;23.15;;;20.00;93.10;;;;;;5036941;28;20279;-85
2022/07/21 08:08:16;;;;;;;33.28;23.00;;;19.90;92.90;;;;;;5035680;28;20295;-86
2022/07/21 08:10:43;;;;;;;30.83;22.13;;;19.90;92.90;;;;;;5037575;28;20176;-86
2022/07/21 08:13:10;;;;;;;34.00;22.85;;;19.90;93.00;;;;;;5036140;28;20176;-86
2022/07/21 08:15:35;;;;;;;30.85;22.10;;;20.00;93.00;;;;;;5037513;28;20267;-86
2022/07/21 08:18:02;;;;;;;30.33;22.27;;;19.90;92.80;;;;;;5036081;28;20712;-86
2022/07/21 08:20:28;;;;;;;32.13;22.05;;;19.70;92.80;;;;;;5036817;28;20215;-85
2022/07/21 08:22:53;;;;;;;35.00;22.85;;;19.70;92.90;;;;;;5035086;28;20573;-87
2022/07/21 08:25:19;;;;;;;33.45;24.27;;;19.80;93.00;;;;;;5035428;28;20700;-86
2022/07/21 08:27:44;;;;;;;28.75;22.30;;;19.80;93.00;;;;;;5036039;28;20545;-86
2022/07/21 08:30:10;;;;;;;28.55;21.65;;;19.80;93.10;;;;;;5035845;28;20176;-86
2022/07/21 08:32:37;;;;;;;31.65;22.25;;;19.90;93.30;;;;;;5037826;28;20184;-86
2022/07/21 08:35:08;;;;;;;34.60;23.42;;;19.90;93.20;;;;;;5037610;28;20770;-85
2022/07/21 08:37:37;;;;;;;30.77;22.52;;;19.90;93.00;;;;;;5038027;28;20153;-85
2022/07/21 08:40:05;;;;;;;38.05;24.13;;;20.00;93.00;;;;;;5036666;28;20192;-85
2022/07/21 08:42:31;;;;;;;30.83;21.63;;;20.10;93.00;;;;;;5037672;28;20283;-85
2022/07/21 08:44:56;;;;;;;29.02;21.60;;;20.30;93.00;;;;;;5035975;28;20235;-85
2022/07/21 08:47:24;;;;;;;29.05;22.02;;;20.50;93.10;;;;;;5036012;28;20610;-85
2022/07/21 08:49:49;;;;;;;29.25;22.10;;;20.70;92.70;;;;;;5036066;28;20177;-86
2022/07/21 08:52:15;;;;;;;36.72;22.17;;;20.50;91.70;;;;;;5037181;28;20195;-85
2022/07/21 08:54:40;;;;;;;36.03;23.08;;;20.70;92.10;;;;;;5035907;28;20705;-86
2022/07/21 08:57:06;;;;;;;33.83;22.30;;;20.60;91.80;;;;;;5036581;28;20235;-85
2022/07/21 08:59:32;;;;;;;34.25;22.67;;;20.40;91.80;;;;;;5036376;28;20180;-85
2022/07/21 09:01:57;;;;;;;35.40;24.90;;;20.50;91.80;;;;;;5036128;28;20602;-86
2022/07/21 09:04:30;;;;;;;31.83;23.95;;;20.40;91.80;;;;;;5037784;28;20276;-85
2022/07/21 09:07:02;;;;;;;37.53;25.92;;;20.50;91.80;;;;;;5036240;28;20188;-85
2022/07/21 09:09:29;;;;;;;34.63;24.75;;;20.40;91.60;;;;;;5035719;28;20211;-85
2022/07/21 09:11:56;;;;;;;34.60;24.83;;;20.40;91.60;;;;;;5036484;28;20222;-85
2022/07/21 09:14:25;;;;;;;34.55;24.13;;;20.30;91.50;;;;;;5035904;28;20208;-86
2022/07/21 09:16:56;;;;;;;31.23;22.65;;;20.30;91.50;;;;;;5037247;28;20165;-86
2022/07/21 09:19:35;;;;;;;37.92;22.65;;;20.30;91.40;;;;;;5036476;28;20204;-86
2022/07/21 09:22:04;;;;;;;32.75;22.90;;;20.20;91.30;;;;;;5036859;28;20149;-85
2022/07/21 09:24:34;;;;;;;32.58;22.40;;;20.20;91.40;;;;;;5035600;28;20201;-85
2022/07/21 09:27:06;;;;;;;32.28;22.33;;;20.20;91.30;;;;;;5037015;28;20578;-86
2022/07/21 09:29:47;;;;;;;30.45;22.08;;;20.20;91.40;;;;;;5036858;28;20176;-85
2022/07/21 09:32:24;;;;;;;23.95;21.25;;;20.20;91.30;;;;;;5033785;28;20181;-86
2022/07/21 09:34:57;;;;;;;25.73;20.50;;;20.20;91.00;;;;;;5032521;28;20346;-85
2022/07/21 09:37:23;;;;;;;27.48;20.52;;;20.30;91.00;;;;;;5034748;28;20649;-85
2022/07/21 09:39:54;;;;;;;23.75;20.98;;;20.30;91.10;;;;;;5033268;28;20177;-86
2022/07/21 09:42:29;;;;;;;25.70;21.75;;;20.20;91.50;;;;;;5033636;28;20176;-86
2022/07/21 09:45:00;;;;;;;28.25;23.20;;;20.00;91.70;;;;;;5034657;28;20212;-87
2022/07/21 09:47:29;;;;;;;28.13;25.10;;;20.00;92.00;;;;;;5033496;28;20647;-87
2022/07/21 09:49:56;;;;;;;30.90;27.35;;;20.10;92.10;;;;;;5034488;28;20191;-86
2022/07/21 09:52:37;;;;;;;32.20;27.88;;;19.90;91.90;;;;;;5032964;28;20307;-85
2022/07/21 09:55:11;;;;;;;32.63;25.42;;;19.90;92.20;;;;;;5032891;28;20208;-87
2022/07/21 09:57:37;;;;;;;30.48;26.70;;;19.90;92.50;;;;;;5034159;28;20627;-87
2022/07/21 10:00:10;;;;;;;33.33;28.52;;;20.10;92.60;;;;;;5033970;28;20172;-86
2022/07/21 10:02:36;;;;;;;33.38;29.42;;;20.20;92.50;;;;;;5034084;28;20168;-87
2022/07/21 10:05:07;;;;;;;31.65;28.27;;;20.10;92.50;;;;;;5033959;28;20204;-88
2022/07/21 10:07:36;;;;;;;34.67;30.83;;;20.10;92.40;;;;;;5033067;28;20660;-86
2022/07/21 10:10:03;;;;;;;35.90;30.85;;;20.20;92.20;;;;;;5033438;28;20184;-85
2022/07/21 10:12:29;;;;;;;34.58;30.90;;;20.20;92.20;;;;;;5037048;28;20179;-84
2022/07/21 10:14:55;;;;;;;38.58;33.30;;;20.30;92.20;;;;;;5035386;28;20205;-85
2022/07/21 10:17:23;;;;;;;34.42;30.27;;;20.40;92.10;;;;;;5035761;28;20168;-86
2022/07/21 10:20:29;;;;;;;37.40;33.28;;;20.60;92.00;;;;;;5034952;28;20176;-85
2022/07/21 10:23:21;;;;;;;35.03;31.25;;;20.70;91.70;;;;;;4978380;28;20181;-85
2022/07/21 10:25:48;;;;;;;34.25;29.83;;;20.90;91.20;;;;;;5036130;28;20690;-85
2022/07/21 10:28:23;;;;;;;33.08;29.33;;;20.90;90.70;;;;;;5037610;28;20192;-85
2022/07/21 10:30:50;;;;;;;31.58;28.33;;;20.90;90.30;;;;;;5035693;28;20180;-85
2022/07/21 10:33:19;;;;;;;30.77;27.65;;;20.80;90.40;;;;;;5034091;28;20318;-85
2022/07/21 10:35:47;;;;;;;32.20;28.75;;;20.80;90.10;;;;;;5034034;28;20543;-84
2022/07/21 10:38:33;;;;;;;33.03;29.52;;;20.70;90.50;;;;;;5035348;28;20541;-85
2022/07/21 10:41:01;;;;;;;32.20;28.80;;;20.70;90.40;;;;;;5035641;28;20164;-85
2022/07/21 10:43:26;;;;;;;30.27;27.08;;;20.90;90.50;;;;;;5035266;28;20250;-83
2022/07/21 10:45:53;;;;;;;29.65;26.70;;;20.90;90.00;;;;;;5034056;28;20655;-85
2022/07/21 10:48:37;;;;;;;26.83;23.98;;;21.10;89.70;;;;;;5032772;28;20181;-86
2022/07/21 10:51:11;;;;;;;22.98;20.75;;;21.30;89.20;;;;;;5033354;28;20169;-87
2022/07/21 10:53:38;;;;;;;20.40;17.40;;;21.40;88.50;;;;;;5033192;28;20224;-87
2022/07/21 10:56:05;;;;;;;21.13;19.02;;;21.50;87.80;;;;;;5032096;28;20179;-87
2022/07/21 10:58:33;;;;;;;19.38;17.30;;;21.50;87.30;;;;;;5033389;28;20222;-87
2022/07/21 11:01:04;;;;;;;21.65;19.55;;;21.40;85.60;;;;;;5032031;28;20173;-87
2022/07/21 11:03:40;;;;;;;22.75;20.38;;;21.60;87.20;;;;;;5033224;28;20168;-87
2022/07/21 11:06:08;;;;;;;17.42;15.63;;;21.80;86.00;;;;;;5032042;28;20643;-88
2022/07/21 11:08:35;;;;;;;17.67;15.73;;;21.60;84.60;;;;;;5032943;28;20204;-88
2022/07/21 11:11:10;;;;;;;16.33;14.82;;;21.80;85.80;;;;;;5031878;28;20173;-87
2022/07/21 11:14:14;;;;;;;16.48;14.65;;;22.20;85.10;;;;;;5031742;28;20203;-87
2022/07/21 11:16:59;;;;;;;15.82;14.00;;;22.30;83.70;;;;;;5031890;28;20180;-88
2022/07/21 11:19:39;;;;;;;14.40;13.00;;;22.30;83.60;;;;;;5031897;28;20215;-88
2022/07/21 11:22:06;;;;;;;13.65;12.27;;;22.70;84.00;;;;;;5032089;28;20575;-88
2022/07/21 11:24:32;;;;;;;14.43;13.00;;;22.50;82.20;;;;;;5032990;28;20235;-88
2022/07/21 11:27:00;;;;;;;14.43;12.18;;;22.70;82.70;;;;;;5032193;28;20267;-87
2022/07/21 11:29:27;;;;;;;11.82;10.38;;;22.80;82.20;;;;;;5032105;28;20189;-89
2022/07/21 11:31:53;;;;;;;9.65;8.80;;;23.10;82.00;;;;;;5031657;28;20179;-88
2022/07/21 11:34:19;;;;;;;9.55;8.75;;;23.30;80.40;;;;;;5031591;28;20208;-88
2022/07/21 11:36:45;;;;;;;8.07;7.38;;;23.30;79.60;;;;;;5031658;28;20173;-88
2022/07/21 11:39:15;;;;;;;9.55;7.25;;;23.60;79.40;;;;;;5031805;28;20260;-88
2022/07/21 11:41:42;;;;;;;7.53;6.72;;;23.70;77.20;;;;;;5033076;28;20165;-88
2022/07/21 11:44:10;;;;;;;7.60;6.90;;;23.50;77.40;;;;;;5032549;28;20205;-87
2022/07/21 11:46:49;;;;;;;6.47;5.88;;;23.90;78.00;;;;;;5031682;28;20173;-88
2022/07/21 11:49:14;;;;;;;7.10;6.15;;;23.60;77.90;;;;;;5031554;28;20177;-88
2022/07/21 11:51:50;;;;;;;7.78;7.07;;;23.60;78.30;;;;;;5031524;28;20180;-88
2022/07/21 11:54:27;;;;;;;9.77;6.85;;;23.70;77.00;;;;;;5031377;28;20204;-88
2022/07/21 11:56:55;;;;;;;6.82;6.22;;;23.70;76.90;;;;;;5031704;28;20175;-89
2022/07/21 11:59:20;;;;;;;7.50;6.80;;;23.40;77.30;;;;;;5035328;28;20173;-87
2022/07/21 12:01:55;;;;;;;7.00;6.40;;;23.40;77.00;;;;;;5036461;28;20219;-88
2022/07/21 12:04:53;;;;;;;5.78;5.32;;;23.50;77.20;;;;;;5035131;28;20674;-87
2022/07/21 12:07:27;;;;;;;6.18;5.18;;;23.40;76.90;;;;;;5033827;28;20189;-88
2022/07/21 12:09:58;;;;;;;5.90;4.13;;;23.30;76.30;;;;;;5035026;28;20186;-87
2022/07/21 12:12:30;;;;;;;4.60;4.20;;;23.20;77.30;;;;;;5035005;28;20177;-88
2022/07/21 12:14:57;;;;;;;4.60;4.18;;;23.30;76.80;;;;;;5035029;28;20213;-90
2022/07/21 12:17:35;;;;;;;4.20;3.80;;;23.20;77.10;;;;;;5035679;28;20268;-88
2022/07/21 12:20:00;;;;;;;4.13;3.83;;;23.10;77.00;;;;;;5035980;28;20218;-88
2022/07/21 12:22:46;;;;;;;5.28;4.78;;;23.40;76.90;;;;;;5035898;28;20196;-89
2022/07/21 12:25:13;;;;;;;5.32;4.82;;;23.10;77.30;;;;;;5035629;28;20200;-88
2022/07/21 12:27:42;;;;;;;5.15;4.68;;;23.00;78.40;;;;;;5035350;28;20207;-86
2022/07/21 12:30:28;;;;;;;5.13;4.70;;;23.00;77.90;;;;;;5035092;28;20184;-88
2022/07/21 12:32:53;;;;;;;4.50;4.10;;;23.00;77.80;;;;;;5035226;28;20245;-87